createdAt,value
2022-10-06T00:00:36.450Z,14.45
2022-10-06T00:01:36.476Z,14.45
2022-10-06T00:02:36.472Z,14.38
2022-10-06T00:03:36.408Z,14.37
2022-10-06T00:04:36.396Z,14.38
2022-10-06T00:05:36.365Z,14.38
2022-10-06T00:06:36.358Z,14.38
2022-10-06T00:07:36.351Z,14.38
2022-10-06T00:08:36.393Z,14.36
2022-10-06T00:09:36.318Z,14.36
2022-10-06T00:10:36.308Z,14.36
2022-10-06T00:11:36.296Z,14.37
2022-10-06T00:12:36.314Z,14.37
2022-10-06T00:13:36.269Z,14.37
2022-10-06T00:14:36.328Z,14.36
2022-10-06T00:15:36.295Z,14.34
2022-10-06T00:16:36.468Z,14.36
2022-10-06T00:17:36.234Z,14.34
2022-10-06T00:18:36.238Z,14.36
2022-10-06T00:19:36.207Z,14.36
2022-10-06T00:20:36.189Z,14.37
2022-10-06T00:21:36.207Z,14.37
2022-10-06T00:22:36.237Z,14.37
2022-10-06T00:23:36.240Z,14.36
2022-10-06T00:24:36.152Z,14.36
2022-10-06T00:25:36.170Z,14.36
2022-10-06T00:26:36.203Z,14.37
2022-10-06T00:27:36.167Z,14.38
2022-10-06T00:28:36.193Z,14.37
2022-10-06T00:29:36.098Z,14.36
2022-10-06T00:30:36.171Z,14.34
2022-10-06T00:31:36.205Z,14.34
2022-10-06T00:32:36.068Z,14.37
2022-10-06T00:33:36.091Z,14.34
2022-10-06T00:34:36.037Z,14.36
2022-10-06T00:35:36.047Z,14.34
2022-10-06T00:36:36.036Z,14.34
2022-10-06T00:37:36.100Z,14.34
2022-10-06T00:38:36.008Z,14.33
2022-10-06T00:39:35.998Z,14.33
2022-10-06T00:40:35.977Z,14.31
2022-10-06T00:41:35.967Z,14.31
2022-10-06T00:42:36.066Z,14.30
2022-10-06T00:43:35.977Z,14.30
2022-10-06T00:44:35.937Z,14.30
2022-10-06T00:45:35.964Z,14.28
2022-10-06T00:46:36.007Z,14.27
2022-10-06T00:47:35.906Z,14.23
2022-10-06T00:48:35.967Z,14.22
2022-10-06T00:49:35.926Z,14.22
2022-10-06T00:50:35.899Z,14.21
2022-10-06T00:51:35.897Z,14.21
2022-10-06T00:52:35.865Z,14.18
2022-10-06T00:53:35.838Z,14.18
2022-10-06T00:54:35.874Z,14.18
2022-10-06T00:55:35.838Z,14.18
2022-10-06T00:56:35.837Z,14.18
2022-10-06T00:57:35.820Z,14.16
2022-10-06T00:58:35.816Z,14.15
2022-10-06T00:59:35.818Z,14.13
2022-10-06T01:00:35.788Z,14.13
2022-10-06T01:01:35.855Z,14.12
2022-10-06T01:02:35.811Z,14.11
2022-10-06T01:03:35.726Z,14.09
2022-10-06T01:04:35.767Z,14.09
2022-10-06T01:05:35.707Z,14.09
2022-10-06T01:06:35.717Z,14.08
2022-10-06T01:07:35.688Z,14.09
2022-10-06T01:08:35.677Z,14.09
2022-10-06T01:09:35.737Z,14.08
2022-10-06T01:10:35.728Z,14.08
2022-10-06T01:11:35.646Z,14.09
2022-10-06T01:12:35.637Z,14.05
2022-10-06T01:13:35.654Z,14.04
2022-10-06T01:14:35.648Z,14.04
2022-10-06T01:15:35.682Z,14.03
2022-10-06T01:16:35.647Z,14.01
2022-10-06T01:17:35.607Z,14.04
2022-10-06T01:18:35.620Z,14.08
2022-10-06T01:19:35.567Z,14.08
2022-10-06T01:20:35.548Z,14.05
2022-10-06T01:21:35.536Z,14.08
2022-10-06T01:22:35.599Z,14.08
2022-10-06T01:23:35.556Z,14.05
2022-10-06T01:24:35.537Z,14.05
2022-10-06T01:25:35.533Z,14.05
2022-10-06T01:26:35.486Z,14.04
2022-10-06T01:27:35.487Z,14.03
2022-10-06T01:28:35.577Z,14.04
2022-10-06T01:29:35.487Z,14.03
2022-10-06T01:30:35.476Z,14.04
2022-10-06T01:31:35.507Z,14.01
2022-10-06T01:32:35.446Z,14.03
2022-10-06T01:33:35.429Z,14.03
2022-10-06T01:34:35.450Z,14.01
2022-10-06T01:35:35.387Z,14.00
2022-10-06T01:36:35.368Z,13.97
2022-10-06T01:37:35.377Z,13.94
2022-10-06T01:38:35.357Z,13.96
2022-10-06T01:39:35.358Z,13.96
2022-10-06T01:40:35.396Z,13.97
2022-10-06T01:41:35.407Z,13.98
2022-10-06T01:42:35.315Z,13.98
2022-10-06T01:43:35.320Z,13.97
2022-10-06T01:44:35.314Z,13.97
2022-10-06T01:45:35.294Z,13.96
2022-10-06T01:46:35.392Z,13.94
2022-10-06T01:47:35.262Z,13.94
2022-10-06T01:48:35.236Z,13.93
2022-10-06T01:49:35.246Z,13.94
2022-10-06T01:50:35.294Z,13.94
2022-10-06T01:51:35.216Z,13.96
2022-10-06T01:52:35.266Z,13.96
2022-10-06T01:53:35.196Z,13.96
2022-10-06T01:54:42.711Z,13.94
2022-10-06T01:55:35.171Z,13.96
2022-10-06T01:56:35.162Z,13.94
2022-10-06T01:57:35.162Z,13.96
2022-10-06T01:58:35.180Z,13.94
2022-10-06T01:59:35.141Z,13.97
2022-10-06T02:00:35.119Z,13.96
2022-10-06T02:01:35.172Z,13.94
2022-10-06T02:02:35.099Z,13.91
2022-10-06T02:03:35.103Z,13.91
2022-10-06T02:04:35.110Z,13.93
2022-10-06T02:05:35.069Z,13.93
2022-10-06T02:06:35.160Z,13.91
2022-10-06T02:07:35.072Z,13.91
2022-10-06T02:08:35.085Z,13.90
2022-10-06T02:09:35.021Z,13.88
2022-10-06T02:10:35.047Z,13.88
2022-10-06T02:11:35.011Z,13.85
2022-10-06T02:12:35.130Z,13.83
2022-10-06T02:13:34.980Z,13.88
2022-10-06T02:14:34.984Z,13.88
2022-10-06T02:15:35.040Z,13.86
2022-10-06T02:16:34.959Z,13.85
2022-10-06T02:17:34.950Z,13.83
2022-10-06T02:18:34.923Z,13.82
2022-10-06T02:19:34.967Z,13.80
2022-10-06T02:20:34.920Z,13.80
2022-10-06T02:21:34.951Z,13.80
2022-10-06T02:22:34.895Z,13.80
2022-10-06T02:23:34.894Z,13.79
2022-10-06T02:24:34.860Z,13.79
2022-10-06T02:25:34.890Z,13.79
2022-10-06T02:26:34.839Z,13.78
2022-10-06T02:27:34.832Z,13.75
2022-10-06T02:28:35.123Z,13.78
2022-10-06T02:29:34.841Z,13.79
2022-10-06T02:30:34.796Z,13.79
2022-10-06T02:31:34.871Z,13.79
2022-10-06T02:32:34.780Z,13.76
2022-10-06T02:33:34.770Z,13.76
2022-10-06T02:34:34.750Z,13.76
2022-10-06T02:35:34.777Z,13.75
2022-10-06T02:36:34.739Z,13.75
2022-10-06T02:37:34.740Z,13.75
2022-10-06T02:38:34.749Z,13.72
2022-10-06T02:39:34.700Z,13.72
2022-10-06T02:40:34.731Z,13.71
2022-10-06T02:41:34.693Z,13.71
2022-10-06T02:42:34.668Z,13.67
2022-10-06T02:43:34.668Z,13.67
2022-10-06T02:44:34.646Z,13.67
2022-10-06T02:45:34.642Z,13.68
2022-10-06T02:46:34.825Z,13.67
2022-10-06T02:47:34.617Z,13.64
2022-10-06T02:48:34.610Z,13.64
2022-10-06T02:49:34.597Z,13.63
2022-10-06T02:50:42.100Z,13.64
2022-10-06T02:51:34.575Z,13.64
2022-10-06T02:52:34.578Z,13.64
2022-10-06T02:53:34.581Z,13.63
2022-10-06T02:54:34.557Z,13.61
2022-10-06T02:55:34.530Z,13.60
2022-10-06T02:56:34.510Z,13.60
2022-10-06T02:57:34.502Z,13.60
2022-10-06T02:58:37.337Z,13.57
2022-10-06T02:59:34.498Z,13.58
2022-10-06T03:00:34.479Z,13.55
2022-10-06T03:01:34.532Z,13.54
2022-10-06T03:02:34.669Z,13.54
2022-10-06T03:03:34.467Z,13.53
2022-10-06T03:04:39.346Z,13.51
2022-10-06T03:05:34.456Z,13.53
2022-10-06T03:06:34.419Z,13.51
2022-10-06T03:07:34.401Z,13.51
2022-10-06T03:08:34.437Z,13.49
2022-10-06T03:09:34.409Z,13.49
2022-10-06T03:10:34.398Z,13.47
2022-10-06T03:11:34.363Z,13.47
2022-10-06T03:12:34.357Z,13.46
2022-10-06T03:13:34.340Z,13.47
2022-10-06T03:14:34.448Z,13.46
2022-10-06T03:15:34.318Z,13.45
2022-10-06T03:16:34.348Z,13.43
2022-10-06T03:17:34.325Z,13.42
2022-10-06T03:18:34.290Z,13.42
2022-10-06T03:19:34.271Z,13.43
2022-10-06T03:20:34.274Z,13.43
2022-10-06T03:21:34.249Z,13.43
2022-10-06T03:22:34.288Z,13.43
2022-10-06T03:23:34.235Z,13.40
2022-10-06T03:24:34.228Z,13.39
2022-10-06T03:25:34.226Z,13.38
2022-10-06T03:26:34.243Z,13.38
2022-10-06T03:27:34.189Z,13.38
2022-10-06T03:28:34.354Z,13.38
2022-10-06T03:29:34.168Z,13.36
2022-10-06T03:30:34.160Z,13.36
2022-10-06T03:31:34.194Z,13.32
2022-10-06T03:32:37.511Z,13.30
2022-10-06T03:33:34.118Z,13.29
2022-10-06T03:34:34.119Z,13.27
2022-10-06T03:35:34.125Z,13.29
2022-10-06T03:36:34.118Z,13.27
2022-10-06T03:37:34.077Z,13.26
2022-10-06T03:38:34.102Z,13.26
2022-10-06T03:39:34.060Z,13.26
2022-10-06T03:40:34.057Z,13.24
2022-10-06T03:41:34.082Z,13.24
2022-10-06T03:42:34.036Z,13.23
2022-10-06T03:43:34.018Z,13.23
2022-10-06T03:44:34.009Z,13.23
2022-10-06T03:45:34.078Z,13.23
2022-10-06T03:46:34.071Z,13.24
2022-10-06T03:47:33.967Z,13.23
2022-10-06T03:48:44.690Z,13.20
2022-10-06T03:49:33.958Z,13.20
2022-10-06T03:50:33.947Z,13.20
2022-10-06T03:51:33.931Z,13.19
2022-10-06T03:52:33.926Z,13.19
2022-10-06T03:53:33.907Z,13.17
2022-10-06T03:54:33.968Z,13.17
2022-10-06T03:55:33.890Z,13.17
2022-10-06T03:56:33.886Z,13.16
2022-10-06T03:57:33.887Z,13.16
2022-10-06T03:58:33.897Z,13.13
2022-10-06T03:59:45.049Z,13.13
2022-10-06T04:00:33.879Z,13.11
2022-10-06T04:01:33.901Z,13.08
2022-10-06T04:02:33.832Z,13.08
2022-10-06T04:03:33.805Z,13.08
2022-10-06T04:04:33.838Z,13.08
2022-10-06T04:05:33.788Z,13.06
2022-10-06T04:06:33.778Z,13.06
2022-10-06T04:07:33.787Z,13.05
2022-10-06T04:08:33.751Z,13.04
2022-10-06T04:09:33.738Z,13.04
2022-10-06T04:10:33.969Z,13.04
2022-10-06T04:11:33.715Z,13.02
2022-10-06T04:12:33.717Z,13.04
2022-10-06T04:13:33.697Z,13.02
2022-10-06T04:14:33.697Z,13.01
2022-10-06T04:15:33.668Z,13.01
2022-10-06T04:16:33.733Z,12.99
2022-10-06T04:17:33.666Z,12.99
2022-10-06T04:18:33.647Z,12.98
2022-10-06T04:19:33.640Z,12.98
2022-10-06T04:20:33.658Z,12.95
2022-10-06T04:21:33.607Z,12.95
2022-10-06T04:22:33.615Z,12.95
2022-10-06T04:23:33.587Z,12.95
2022-10-06T04:24:33.621Z,12.95
2022-10-06T04:25:33.567Z,12.93
2022-10-06T04:26:33.598Z,12.93
2022-10-06T04:27:33.548Z,12.93
2022-10-06T04:28:34.013Z,12.91
2022-10-06T04:29:33.527Z,12.91
2022-10-06T04:30:33.537Z,12.88
2022-10-06T04:31:33.567Z,12.88
2022-10-06T04:32:33.497Z,12.87
2022-10-06T04:33:33.516Z,12.86
2022-10-06T04:34:33.476Z,12.84
2022-10-06T04:35:33.486Z,12.83
2022-10-06T04:36:33.457Z,12.81
2022-10-06T04:37:33.467Z,12.80
2022-10-06T04:38:33.669Z,12.80
2022-10-06T04:39:33.415Z,12.79
2022-10-06T04:40:33.408Z,12.79
2022-10-06T04:41:33.398Z,12.79
2022-10-06T04:42:35.264Z,12.77
2022-10-06T04:43:33.407Z,12.80
2022-10-06T04:44:33.368Z,12.79
2022-10-06T04:45:33.419Z,12.80
2022-10-06T04:46:48.798Z,12.79
2022-10-06T04:47:34.375Z,12.79
2022-10-06T04:48:33.327Z,12.77
2022-10-06T04:49:33.314Z,12.79
2022-10-06T04:50:33.343Z,12.79
2022-10-06T04:51:33.286Z,12.79
2022-10-06T04:52:33.284Z,12.76
2022-10-06T04:53:33.273Z,12.72
2022-10-06T04:54:34.041Z,12.72
2022-10-06T04:55:33.271Z,12.69
2022-10-06T04:56:33.247Z,12.71
2022-10-06T04:57:33.227Z,12.69
2022-10-06T04:58:33.237Z,12.69
2022-10-06T04:59:33.199Z,12.69
2022-10-06T05:00:33.257Z,12.68
2022-10-06T05:01:33.178Z,12.68
2022-10-06T05:02:33.226Z,12.65
2022-10-06T05:03:33.157Z,12.63
2022-10-06T05:04:33.154Z,12.62
2022-10-06T05:05:33.160Z,12.62
2022-10-06T05:06:33.400Z,12.59
2022-10-06T05:07:33.149Z,12.59
2022-10-06T05:08:44.588Z,12.59
2022-10-06T05:09:33.094Z,12.59
2022-10-06T05:10:33.086Z,12.58
2022-10-06T05:11:33.075Z,12.55
2022-10-06T05:12:45.335Z,12.55
2022-10-06T05:13:33.049Z,12.53
2022-10-06T05:14:33.065Z,12.53
2022-10-06T05:15:33.066Z,12.51
2022-10-06T05:16:33.091Z,12.50
2022-10-06T05:17:33.037Z,12.50
2022-10-06T05:18:33.016Z,12.48
2022-10-06T05:19:33.036Z,12.48
2022-10-06T05:20:32.982Z,12.48
2022-10-06T05:21:32.989Z,12.48
2022-10-06T05:22:32.956Z,12.47
2022-10-06T05:23:33.227Z,12.46
2022-10-06T05:24:32.949Z,12.44
2022-10-06T05:25:32.926Z,12.43
2022-10-06T05:26:32.936Z,12.41
2022-10-06T05:27:32.949Z,12.41
2022-10-06T05:28:33.571Z,12.38
2022-10-06T05:29:32.886Z,12.38
2022-10-06T05:30:32.926Z,12.38
2022-10-06T05:31:32.940Z,12.36
2022-10-06T05:32:36.070Z,12.38
2022-10-06T05:33:32.865Z,12.36
2022-10-06T05:34:32.867Z,12.35
2022-10-06T05:35:32.815Z,12.32
2022-10-06T05:36:32.825Z,12.33
2022-10-06T05:37:32.797Z,12.33
2022-10-06T05:38:33.112Z,12.33
2022-10-06T05:39:32.855Z,12.33
2022-10-06T05:40:32.784Z,12.32
2022-10-06T05:41:32.891Z,12.33
2022-10-06T05:42:32.763Z,12.32
2022-10-06T05:43:32.725Z,12.32
2022-10-06T05:44:32.725Z,12.32
2022-10-06T05:45:32.799Z,12.29
2022-10-06T05:46:32.724Z,12.30
2022-10-06T05:47:32.738Z,12.29
2022-10-06T05:48:32.787Z,12.28
2022-10-06T05:49:32.678Z,12.28
2022-10-06T05:50:32.662Z,12.28
2022-10-06T05:51:32.645Z,12.28
2022-10-06T05:52:32.643Z,12.25
2022-10-06T05:53:32.656Z,12.25
2022-10-06T05:54:32.623Z,12.23
2022-10-06T05:55:32.625Z,12.25
2022-10-06T05:56:32.617Z,12.23
2022-10-06T05:57:32.588Z,12.22
2022-10-06T05:58:32.924Z,12.18
2022-10-06T05:59:32.595Z,12.17
2022-10-06T06:00:32.554Z,12.15
2022-10-06T06:01:32.585Z,12.17
2022-10-06T06:02:32.562Z,12.15
2022-10-06T06:03:32.523Z,12.15
2022-10-06T06:04:32.545Z,12.14
2022-10-06T06:05:32.500Z,12.14
2022-10-06T06:06:32.495Z,12.13
2022-10-06T06:07:32.520Z,12.14
2022-10-06T06:08:32.901Z,12.11
2022-10-06T06:09:32.453Z,12.11
2022-10-06T06:10:32.453Z,12.11
2022-10-06T06:11:32.434Z,12.13
2022-10-06T06:12:32.423Z,12.14
2022-10-06T06:13:32.492Z,12.13
2022-10-06T06:14:32.414Z,12.13
2022-10-06T06:15:32.445Z,12.13
2022-10-06T06:16:32.414Z,12.13
2022-10-06T06:17:32.404Z,12.14
2022-10-06T06:18:32.662Z,12.14
2022-10-06T06:19:32.401Z,12.13
2022-10-06T06:20:32.345Z,12.14
2022-10-06T06:21:32.327Z,12.14
2022-10-06T06:22:32.322Z,12.14
2022-10-06T06:23:32.313Z,12.13
2022-10-06T06:24:32.310Z,12.13
2022-10-06T06:25:32.322Z,12.11
2022-10-06T06:26:32.313Z,12.13
2022-10-06T06:27:32.276Z,12.13
2022-10-06T06:28:32.970Z,12.11
2022-10-06T06:29:32.243Z,12.14
2022-10-06T06:30:32.245Z,12.13
2022-10-06T06:31:32.322Z,12.14
2022-10-06T06:32:32.215Z,12.14
2022-10-06T06:33:32.234Z,12.14
2022-10-06T06:34:32.236Z,12.15
2022-10-06T06:35:32.182Z,12.15
2022-10-06T06:36:32.182Z,12.17
2022-10-06T06:37:32.153Z,12.17
2022-10-06T06:38:32.804Z,12.15
2022-10-06T06:39:32.133Z,12.17
2022-10-06T06:40:32.163Z,12.18
2022-10-06T06:41:32.165Z,12.21
2022-10-06T06:42:32.114Z,12.21
2022-10-06T06:43:32.529Z,12.21
2022-10-06T06:44:32.091Z,12.21
2022-10-06T06:45:32.103Z,12.22
2022-10-06T06:46:32.362Z,12.22
2022-10-06T06:47:32.061Z,12.25
2022-10-06T06:48:32.566Z,12.25
2022-10-06T06:49:32.034Z,12.28
2022-10-06T06:50:32.042Z,12.28
2022-10-06T06:51:32.024Z,12.30
2022-10-06T06:52:32.084Z,12.32
2022-10-06T06:53:31.991Z,12.32
2022-10-06T06:54:34.735Z,12.32
2022-10-06T06:55:31.964Z,12.35
2022-10-06T06:56:32.001Z,12.40
2022-10-06T06:57:31.952Z,12.40
2022-10-06T06:58:32.515Z,12.41
2022-10-06T06:59:31.939Z,12.41
2022-10-06T07:00:36.070Z,12.43
2022-10-06T07:01:31.920Z,12.43
2022-10-06T07:02:31.962Z,12.46
2022-10-06T07:03:56.037Z,12.47
2022-10-06T07:04:32.878Z,12.46
2022-10-06T07:05:31.854Z,12.47
2022-10-06T07:06:31.894Z,12.50
2022-10-06T07:07:31.863Z,12.50
2022-10-06T07:08:32.368Z,12.51
2022-10-06T07:09:31.822Z,12.53
2022-10-06T07:10:31.812Z,12.54
2022-10-06T07:11:31.800Z,12.55
2022-10-06T07:12:31.942Z,12.58
2022-10-06T07:13:31.773Z,12.59
2022-10-06T07:14:31.771Z,12.61
2022-10-06T07:15:31.809Z,12.62
2022-10-06T07:16:31.765Z,12.65
2022-10-06T07:17:31.763Z,12.65
2022-10-06T07:18:32.294Z,12.66
2022-10-06T07:19:31.753Z,12.68
2022-10-06T07:20:31.702Z,12.68
2022-10-06T07:21:31.713Z,12.69
2022-10-06T07:22:31.682Z,12.72
2022-10-06T07:23:31.667Z,12.72
2022-10-06T07:24:31.662Z,12.72
2022-10-06T07:25:31.692Z,12.76
2022-10-06T07:26:31.634Z,12.77
2022-10-06T07:27:31.642Z,12.79
2022-10-06T07:28:31.658Z,12.80
2022-10-06T07:29:31.639Z,12.83
2022-10-06T07:30:31.621Z,12.84
2022-10-06T07:31:31.631Z,12.86
2022-10-06T07:32:31.571Z,12.88
2022-10-06T07:33:31.598Z,12.91
2022-10-06T07:34:31.599Z,12.95
2022-10-06T07:35:31.642Z,12.98
2022-10-06T07:36:31.522Z,12.99
2022-10-06T07:37:31.521Z,12.99
2022-10-06T07:38:31.528Z,12.99
2022-10-06T07:39:31.509Z,12.99
2022-10-06T07:40:31.521Z,12.96
2022-10-06T07:41:31.543Z,12.99
2022-10-06T07:42:31.490Z,13.01
2022-10-06T07:43:31.471Z,13.05
2022-10-06T07:44:31.471Z,13.08
2022-10-06T07:45:31.545Z,13.09
2022-10-06T07:46:31.451Z,13.11
2022-10-06T07:47:31.421Z,13.14
2022-10-06T07:48:31.413Z,13.17
2022-10-06T07:49:31.441Z,13.20
2022-10-06T07:50:31.384Z,13.23
2022-10-06T07:51:31.491Z,13.24
2022-10-06T07:52:31.362Z,13.26
2022-10-06T07:53:31.350Z,13.30
2022-10-06T07:54:31.466Z,13.30
2022-10-06T07:56:40.856Z,13.30
2022-10-06T07:57:40.809Z,13.35
2022-10-06T07:58:40.796Z,13.35
2022-10-06T07:59:40.784Z,13.38
2022-10-06T08:00:40.918Z,13.39
2022-10-06T08:01:40.802Z,13.40
2022-10-06T08:02:40.819Z,13.45
2022-10-06T08:03:40.785Z,13.47
2022-10-06T08:04:40.733Z,13.49
2022-10-06T08:05:40.715Z,13.53
2022-10-06T08:06:40.715Z,13.55
2022-10-06T08:07:40.694Z,13.57
2022-10-06T08:08:40.697Z,13.61
2022-10-06T08:09:40.713Z,13.61
2022-10-06T08:10:40.664Z,13.64
2022-10-06T08:11:40.662Z,13.68
2022-10-06T08:12:40.782Z,13.68
2022-10-06T08:13:40.656Z,13.72
2022-10-06T08:14:40.633Z,13.75
2022-10-06T08:15:40.684Z,13.78
2022-10-06T08:16:40.597Z,13.78
2022-10-06T08:17:40.584Z,13.79
2022-10-06T08:18:46.637Z,13.80
2022-10-06T08:19:41.867Z,13.82
2022-10-06T08:20:40.553Z,13.85
2022-10-06T08:21:40.565Z,13.90
2022-10-06T08:22:40.534Z,13.93
2022-10-06T08:23:40.607Z,13.96
2022-10-06T08:25:04.318Z,13.98
2022-10-06T08:25:41.494Z,14.01
2022-10-06T08:26:40.485Z,14.04
2022-10-06T08:27:40.506Z,14.08
2022-10-06T08:28:40.501Z,14.11
2022-10-06T08:29:40.485Z,14.12
2022-10-06T08:30:40.445Z,14.13
2022-10-06T08:31:40.477Z,14.13
2022-10-06T08:32:40.544Z,14.18
2022-10-06T08:33:40.474Z,14.16
2022-10-06T08:34:40.486Z,14.18
2022-10-06T08:35:40.385Z,14.16
2022-10-06T08:36:44.988Z,14.18
2022-10-06T08:37:41.365Z,14.21
2022-10-06T08:38:40.353Z,14.26
2022-10-06T08:39:40.402Z,14.23
2022-10-06T08:40:40.442Z,14.28
2022-10-06T08:41:40.317Z,14.33
2022-10-06T08:42:40.322Z,14.34
2022-10-06T08:43:40.322Z,14.36
2022-10-06T08:44:40.294Z,14.37
2022-10-06T08:45:40.367Z,14.36
2022-10-06T08:46:40.305Z,14.37
2022-10-06T08:47:40.252Z,14.37
2022-10-06T08:48:40.325Z,14.38
2022-10-06T08:49:40.274Z,14.38
2022-10-06T08:50:40.225Z,14.40
2022-10-06T08:51:40.214Z,14.41
2022-10-06T08:52:40.204Z,14.44
2022-10-06T08:53:40.184Z,14.45
2022-10-06T08:54:40.215Z,14.46
2022-10-06T08:55:40.511Z,14.51
2022-10-06T08:56:40.174Z,14.51
2022-10-06T08:57:40.184Z,14.53
2022-10-06T08:58:40.133Z,14.55
2022-10-06T08:59:40.162Z,14.58
2022-10-06T09:00:40.147Z,14.59
2022-10-06T09:01:40.145Z,14.63
2022-10-06T09:02:40.143Z,14.63
2022-10-06T09:03:40.084Z,14.64
2022-10-06T09:04:40.104Z,14.63
2022-10-06T09:05:40.063Z,14.69
2022-10-06T09:06:40.044Z,14.69
2022-10-06T09:07:40.141Z,14.71
2022-10-06T09:08:40.024Z,14.73
2022-10-06T09:09:40.023Z,14.78
2022-10-06T09:10:40.023Z,14.82
2022-10-06T09:11:40.046Z,14.79
2022-10-06T09:12:39.983Z,14.82
2022-10-06T09:13:39.993Z,14.85
2022-10-06T09:14:39.985Z,14.86
2022-10-06T09:15:40.025Z,14.87
2022-10-06T09:16:39.963Z,14.92
2022-10-06T09:17:39.964Z,14.95
2022-10-06T09:19:09.308Z,15.01
2022-10-06T09:19:40.906Z,15.03
2022-10-06T09:20:39.893Z,15.03
2022-10-06T09:21:39.886Z,15.01
2022-10-06T09:22:39.871Z,15.01
2022-10-06T09:23:39.905Z,15.04
2022-10-06T09:24:43.648Z,15.10
2022-10-06T09:25:40.842Z,15.12
2022-10-06T09:26:40.492Z,15.17
2022-10-06T09:27:39.843Z,15.19
2022-10-06T09:28:39.934Z,15.20
2022-10-06T09:29:39.794Z,15.17
2022-10-06T09:30:39.772Z,15.22
2022-10-06T09:31:39.856Z,15.22
2022-10-06T09:32:39.764Z,15.27
2022-10-06T09:33:46.634Z,15.29
2022-10-06T09:34:39.734Z,15.36
2022-10-06T09:35:43.754Z,15.40
2022-10-06T09:36:39.723Z,15.41
2022-10-06T09:37:39.716Z,15.36
2022-10-06T09:38:39.701Z,15.33
2022-10-06T09:39:39.685Z,15.33
2022-10-06T09:40:39.674Z,15.33
2022-10-06T09:41:39.741Z,15.35
2022-10-06T09:42:39.716Z,15.35
2022-10-06T09:43:39.683Z,15.33
2022-10-06T09:44:39.654Z,15.30
2022-10-06T09:45:39.783Z,15.26
2022-10-06T09:46:39.644Z,15.22
2022-10-06T09:47:39.621Z,15.17
2022-10-06T09:48:39.593Z,15.14
2022-10-06T09:49:39.615Z,15.14
2022-10-06T09:50:39.647Z,15.15
2022-10-06T09:51:39.563Z,15.17
2022-10-06T09:52:39.542Z,15.17
2022-10-06T09:53:39.533Z,15.19
2022-10-06T09:54:39.524Z,15.22
2022-10-06T09:55:39.563Z,15.25
2022-10-06T09:56:39.542Z,15.26
2022-10-06T09:57:39.494Z,15.26
2022-10-06T09:58:39.486Z,15.26
2022-10-06T09:59:40.405Z,15.30
2022-10-06T10:00:39.541Z,15.30
2022-10-06T10:01:39.452Z,15.32
2022-10-06T10:02:39.621Z,15.36
2022-10-06T10:03:41.950Z,15.40
2022-10-06T10:04:40.411Z,15.43
2022-10-06T10:05:39.416Z,15.45
2022-10-06T10:06:39.392Z,15.44
2022-10-06T10:07:39.383Z,15.41
2022-10-06T10:08:39.373Z,15.40
2022-10-06T10:09:39.403Z,15.40
2022-10-06T10:10:39.342Z,15.40
2022-10-06T10:11:39.341Z,15.44
2022-10-06T10:12:39.325Z,15.43
2022-10-06T10:13:39.335Z,15.40
2022-10-06T10:14:39.343Z,15.38
2022-10-06T10:15:39.302Z,15.35
2022-10-06T10:16:39.290Z,15.35
2022-10-06T10:17:39.317Z,15.33
2022-10-06T10:18:39.262Z,15.33
2022-10-06T10:19:39.264Z,15.33
2022-10-06T10:20:39.265Z,15.40
2022-10-06T10:21:39.264Z,15.44
2022-10-06T10:22:39.264Z,15.48
2022-10-06T10:23:39.227Z,15.51
2022-10-06T10:24:39.194Z,15.59
2022-10-06T10:25:39.193Z,15.63
2022-10-06T10:26:39.176Z,15.65
2022-10-06T10:27:39.179Z,15.63
2022-10-06T10:28:39.295Z,15.63
2022-10-06T10:29:39.142Z,15.65
2022-10-06T10:30:39.134Z,15.62
2022-10-06T10:31:39.263Z,15.58
2022-10-06T10:32:39.112Z,15.58
2022-10-06T10:33:39.104Z,15.59
2022-10-06T10:34:39.122Z,15.62
2022-10-06T10:35:39.123Z,15.66
2022-10-06T10:36:39.105Z,15.65
2022-10-06T10:37:39.062Z,15.63
2022-10-06T10:38:39.077Z,15.65
2022-10-06T10:39:39.044Z,15.65
2022-10-06T10:40:39.033Z,15.66
2022-10-06T10:41:39.036Z,15.62
2022-10-06T10:42:39.115Z,15.60
2022-10-06T10:43:39.016Z,15.62
2022-10-06T10:44:39.026Z,15.60
2022-10-06T10:45:41.804Z,15.63
2022-10-06T10:46:39.060Z,15.69
2022-10-06T10:47:38.973Z,15.72
2022-10-06T10:48:38.984Z,15.78
2022-10-06T10:49:38.958Z,15.81
2022-10-06T10:50:38.913Z,15.78
2022-10-06T10:51:38.913Z,15.72
2022-10-06T10:52:38.903Z,15.72
2022-10-06T10:53:41.854Z,15.72
2022-10-06T10:54:38.914Z,15.72
2022-10-06T10:55:38.874Z,15.73
2022-10-06T10:56:38.875Z,15.73
2022-10-06T10:57:38.853Z,15.73
2022-10-06T10:58:38.834Z,15.68
2022-10-06T10:59:38.824Z,15.63
2022-10-06T11:00:38.893Z,15.60
2022-10-06T11:01:38.865Z,15.59
2022-10-06T11:02:38.794Z,15.58
2022-10-06T11:03:38.774Z,15.60
2022-10-06T11:04:38.795Z,15.65
2022-10-06T11:05:38.762Z,15.70
2022-10-06T11:06:38.808Z,15.77
2022-10-06T11:07:38.744Z,15.81
2022-10-06T11:08:38.749Z,15.78
2022-10-06T11:09:38.732Z,15.78
2022-10-06T11:10:38.702Z,15.78
2022-10-06T11:11:38.691Z,15.83
2022-10-06T11:12:38.716Z,15.91
2022-10-06T11:13:38.663Z,15.96
2022-10-06T11:14:38.692Z,16.00
2022-10-06T11:15:38.653Z,16.08
2022-10-06T11:16:38.682Z,16.09
2022-10-06T11:17:38.681Z,16.10
2022-10-06T11:18:38.635Z,16.16
2022-10-06T11:19:38.673Z,16.13
2022-10-06T11:20:38.633Z,16.13
2022-10-06T11:21:38.584Z,16.08
2022-10-06T11:22:38.690Z,16.06
2022-10-06T11:23:38.603Z,16.02
2022-10-06T11:24:38.543Z,16.00
2022-10-06T11:25:38.573Z,16.03
2022-10-06T11:26:38.524Z,16.03
2022-10-06T11:27:38.524Z,16.03
2022-10-06T11:28:38.640Z,16.03
2022-10-06T11:29:38.503Z,16.06
2022-10-06T11:30:38.518Z,16.05
2022-10-06T11:31:38.506Z,16.06
2022-10-06T11:32:38.515Z,16.02
2022-10-06T11:33:38.455Z,16.05
2022-10-06T11:34:38.444Z,16.06
2022-10-06T11:35:38.453Z,16.13
2022-10-06T11:36:38.416Z,16.17
2022-10-06T11:37:38.414Z,16.17
2022-10-06T11:38:38.433Z,16.21
2022-10-06T11:39:38.431Z,16.26
2022-10-06T11:40:38.471Z,16.33
2022-10-06T11:41:38.379Z,16.33
2022-10-06T11:42:38.356Z,16.33
2022-10-06T11:43:38.365Z,16.32
2022-10-06T11:44:38.387Z,16.29
2022-10-06T11:45:38.465Z,16.33
2022-10-06T11:46:41.345Z,16.36
2022-10-06T11:47:39.314Z,16.40
2022-10-06T11:48:38.285Z,16.47
2022-10-06T11:49:38.282Z,16.52
2022-10-06T11:50:38.319Z,16.52
2022-10-06T11:51:38.369Z,16.54
2022-10-06T11:52:38.273Z,16.52
2022-10-06T11:53:38.263Z,16.51
2022-10-06T11:54:38.235Z,16.47
2022-10-06T11:55:38.249Z,16.46
2022-10-06T11:56:38.218Z,16.47
2022-10-06T11:57:45.054Z,16.52
2022-10-06T11:58:42.496Z,16.55
2022-10-06T11:59:38.173Z,16.57
2022-10-06T12:00:38.166Z,16.54
2022-10-06T12:01:38.178Z,16.55
2022-10-06T12:02:38.287Z,16.54
2022-10-06T12:03:38.182Z,16.55
2022-10-06T12:04:38.113Z,16.54
2022-10-06T12:05:55.881Z,16.52
2022-10-06T12:06:39.116Z,16.52
2022-10-06T12:07:38.083Z,16.58
2022-10-06T12:08:38.098Z,16.64
2022-10-06T12:09:39.752Z,16.69
2022-10-06T12:10:38.064Z,16.74
2022-10-06T12:11:38.054Z,16.80
2022-10-06T12:12:38.085Z,16.82
2022-10-06T12:17:39.044Z,16.95
2022-10-06T12:18:38.010Z,16.91
2022-10-06T12:19:37.955Z,16.88
2022-10-06T12:20:38.038Z,16.84
2022-10-06T12:21:38.015Z,16.83
2022-10-06T12:22:37.924Z,16.84
2022-10-06T12:23:38.057Z,16.88
2022-10-06T12:24:37.936Z,16.87
2022-10-06T12:25:38.056Z,16.87
2022-10-06T12:26:37.914Z,16.90
2022-10-06T12:27:37.874Z,16.94
2022-10-06T12:28:37.929Z,16.95
2022-10-06T12:29:37.844Z,16.99
2022-10-06T12:30:37.881Z,16.95
2022-10-06T12:31:37.854Z,16.95
2022-10-06T12:32:37.805Z,16.97
2022-10-06T12:33:37.823Z,16.94
2022-10-06T12:34:37.817Z,16.94
2022-10-06T12:35:37.804Z,16.97
2022-10-06T12:36:37.795Z,16.99
2022-10-06T12:37:37.973Z,16.99
2022-10-06T12:38:37.764Z,17.01
2022-10-06T12:39:37.735Z,17.02
2022-10-06T12:40:37.785Z,17.04
2022-10-06T12:41:37.762Z,17.07
2022-10-06T12:42:37.725Z,17.13
2022-10-06T12:43:37.749Z,17.19
2022-10-06T12:44:37.724Z,17.20
2022-10-06T12:45:40.043Z,17.20
2022-10-06T12:46:39.054Z,17.22
2022-10-06T12:47:37.645Z,17.22
2022-10-06T12:48:37.654Z,17.24
2022-10-06T12:49:37.704Z,17.22
2022-10-06T12:50:37.623Z,17.20
2022-10-06T12:51:37.931Z,17.19
2022-10-06T12:52:37.596Z,17.17
2022-10-06T12:53:37.583Z,17.14
2022-10-06T12:54:37.600Z,17.13
2022-10-06T12:55:37.554Z,17.16
2022-10-06T12:56:37.543Z,17.19
2022-10-06T12:57:37.574Z,17.22